Terminal Aerodrome Forecast
Issued by NWS Lake Charles, LA

Home | Current Version | Previous Version | Text Only | Print | Product List | Glossary On
Versions: 1 2 3 4 5 6 7 8 9 10 11 12 13 14 15 16
000
FTUS44 KLCH 231145 CCA
TAFARA
TAF COR
KARA 231145Z 2312/2412 13003KT 3SM BR OVC003
      TEMPO 2312/2314 1/2SM FG
     FM231500 14007KT P6SM BKN008 OVC015
     FM231800 17010KT P6SM VCSH BKN030
     FM240200 18003KT P6SM OVC007=

USA.gov is the U.S. government's official web portal to all federal, state and local government web resources and services.